Time,TemperatureF,DewpointF,PressureIn,WindDirection,WindDirectionDegrees,WindSpeedMPH,WindSpeedGustMPH,Humidity,HourlyPrecipIn,Conditions,Clouds,dailyrainin,SoftwareType,DateUTC
2014-01-09 00:13:00,23.0,12.0,30.53,NNW,347,1.0,2.0,64,0.00,,,0.00,weatherlink.com 1.10,2014-01-09 05:13:00,
2014-01-09 00:28:00,23.0,12.0,30.53,NNW,332,0.0,1.0,63,0.00,,,0.00,weatherlink.com 1.10,2014-01-09 05:28:00,
2014-01-09 00:43:00,23.0,13.0,30.53,North,360,1.0,1.0,66,0.00,,,0.00,weatherlink.com 1.10,2014-01-09 05:43:00,
2014-01-09 00:58:00,22.9,13.0,30.53,North,353,0.0,1.0,66,0.00,,,0.00,weatherlink.com 1.10,2014-01-09 05:58:00,
2014-01-09 01:13:00,22.9,13.0,30.52,NNE,22,0.0,0.0,67,0.00,,,0.00,weatherlink.com 1.10,2014-01-09 06:13:00,
2014-01-09 01:28:00,22.9,13.0,30.53,ENE,68,0.0,1.0,66,0.00,,,0.00,weatherlink.com 1.10,2014-01-09 06:28:00,
2014-01-09 01:43:00,22.6,13.0,30.53,NNE,30,0.0,2.0,66,0.00,,,0.00,weatherlink.com 1.10,2014-01-09 06:43:00,
2014-01-09 01:58:00,22.5,12.0,30.53,NNE,29,2.0,3.0,65,0.00,,,0.00,weatherlink.com 1.10,2014-01-09 06:58:00,
2014-01-09 02:13:00,22.3,13.0,30.54,NW,315,0.0,1.0,67,0.00,,,0.00,weatherlink.com 1.10,2014-01-09 07:13:00,
2014-01-09 02:28:00,21.9,13.0,30.54,NW,315,0.0,1.0,68,0.00,,,0.00,weatherlink.com 1.10,2014-01-09 07:28:00,
2014-01-09 02:43:00,20.9,13.0,30.55,NW,315,0.0,0.0,71,0.00,,,0.00,weatherlink.com 1.10,2014-01-09 07:43:00,
2014-01-09 02:58:00,20.7,13.0,30.56,NW,315,0.0,0.0,73,0.00,,,0.00,weatherlink.com 1.10,2014-01-09 07:58:00,
2014-01-09 03:13:00,20.2,13.0,30.56,NNW,328,0.0,0.0,73,0.00,,,0.00,weatherlink.com 1.10,2014-01-09 08:13:00,
2014-01-09 03:28:00,19.8,13.0,30.56,NNW,328,0.0,0.0,75,0.00,,,0.00,weatherlink.com 1.10,2014-01-09 08:28:00,
2014-01-09 03:43:00,19.7,13.0,30.57,NNW,328,0.0,0.0,75,0.00,,,0.00,weatherlink.com 1.10,2014-01-09 08:43:00,
2014-01-09 03:58:00,19.8,13.0,30.57,NNW,328,0.0,0.0,76,0.00,,,0.00,weatherlink.com 1.10,2014-01-09 08:58:00,
2014-01-09 04:13:00,20.3,14.0,30.57,NNW,328,0.0,0.0,75,0.00,,,0.00,weatherlink.com 1.10,2014-01-09 09:13:00,
2014-01-09 04:28:00,20.7,14.0,30.57,NNW,328,0.0,0.0,74,0.00,,,0.00,weatherlink.com 1.10,2014-01-09 09:28:00,
2014-01-09 04:43:00,20.9,14.0,30.57,NNW,328,0.0,0.0,73,0.00,,,0.00,weatherlink.com 1.10,2014-01-09 09:43:00,
2014-01-09 04:58:00,20.7,13.0,30.58,NNW,328,0.0,0.0,73,0.00,,,0.00,weatherlink.com 1.10,2014-01-09 09:58:00,
2014-01-09 05:13:00,20.2,13.0,30.58,NNW,329,0.0,0.0,74,0.00,,,0.00,weatherlink.com 1.10,2014-01-09 10:13:00,
2014-01-09 05:28:00,19.3,13.0,30.58,NNW,328,0.0,0.0,76,0.00,,,0.00,weatherlink.com 1.10,2014-01-09 10:28:00,
2014-01-09 05:43:00,19.0,14.0,30.58,NNW,330,0.0,0.0,79,0.00,,,0.00,weatherlink.com 1.10,2014-01-09 10:43:00,
2014-01-09 05:58:00,18.9,14.0,30.58,NNW,330,0.0,0.0,80,0.00,,,0.00,weatherlink.com 1.10,2014-01-09 10:58:00,
2014-01-09 06:13:00,18.5,14.0,30.59,NNW,330,0.0,0.0,81,0.00,,,0.00,weatherlink.com 1.10,2014-01-09 11:13:00,
2014-01-09 06:28:00,18.3,13.0,30.59,NNW,330,0.0,0.0,81,0.00,,,0.00,weatherlink.com 1.10,2014-01-09 11:28:00,
2014-01-09 06:43:00,18.2,13.0,30.60,NNW,330,0.0,0.0,81,0.00,,,0.00,weatherlink.com 1.10,2014-01-09 11:43:00,
2014-01-09 06:58:00,18.7,14.0,30.61,NNW,333,0.0,0.0,81,0.00,,,0.00,weatherlink.com 1.10,2014-01-09 11:58:00,
2014-01-09 07:13:00,19.3,14.0,30.61,NNW,345,0.0,0.0,81,0.00,,,0.00,weatherlink.com 1.10,2014-01-09 12:13:00,
2014-01-09 07:29:00,19.7,15.0,30.61,NNW,346,0.0,0.0,81,0.00,,,0.00,weatherlink.com 1.10,2014-01-09 12:29:00,
2014-01-09 07:44:00,19.9,15.0,30.63,NNW,345,0.0,0.0,80,0.00,,,0.00,weatherlink.com 1.10,2014-01-09 12:44:00,
2014-01-09 07:59:00,20.0,15.0,30.63,East,97,0.0,0.0,80,0.00,,,0.00,weatherlink.com 1.10,2014-01-09 12:59:00,
2014-01-09 08:14:00,19.3,14.0,30.64,NW,308,0.0,0.0,81,0.00,,,0.00,weatherlink.com 1.10,2014-01-09 13:14:00,
2014-01-09 08:29:00,21.2,16.0,30.65,NW,308,0.0,0.0,80,0.00,,,0.00,weatherlink.com 1.10,2014-01-09 13:29:00,
2014-01-09 08:44:00,24.3,17.0,30.66,SSW,213,0.0,0.0,74,0.00,,,0.00,weatherlink.com 1.10,2014-01-09 13:44:00,
2014-01-09 08:59:00,25.4,17.0,30.66,SSW,193,0.0,0.0,69,0.00,,,0.00,weatherlink.com 1.10,2014-01-09 13:59:00,
2014-01-09 09:14:00,25.8,17.0,30.66,SE,145,0.0,1.0,68,0.00,,,0.00,weatherlink.com 1.10,2014-01-09 14:14:00,
2014-01-09 09:29:00,26.5,16.0,30.66,SE,145,0.0,0.0,66,0.00,,,0.00,weatherlink.com 1.10,2014-01-09 14:29:00,
2014-01-09 09:44:00,29.3,16.0,30.67,ESE,116,0.0,1.0,58,0.00,,,0.00,weatherlink.com 1.10,2014-01-09 14:44:00,
2014-01-09 09:59:00,29.4,14.0,30.67,NW,309,0.0,2.0,54,0.00,,,0.00,weatherlink.com 1.10,2014-01-09 14:59:00,
2014-01-09 10:14:00,29.3,16.0,30.67,NW,323,2.0,4.0,57,0.00,,,0.00,weatherlink.com 1.10,2014-01-09 15:14:00,
2014-01-09 10:29:00,30.5,18.0,30.67,NW,319,0.0,4.0,59,0.00,,,0.00,weatherlink.com 1.10,2014-01-09 15:29:00,
2014-01-09 10:44:00,32.8,19.0,30.66,SE,124,0.0,1.0,58,0.00,,,0.00,weatherlink.com 1.10,2014-01-09 15:44:00,
2014-01-09 10:59:00,32.9,19.0,30.66,ESE,112,0.0,4.0,58,0.00,,,0.00,weatherlink.com 1.10,2014-01-09 15:59:00,
2014-01-09 11:14:00,32.7,20.0,30.66,NE,35,0.0,3.0,59,0.00,,,0.00,weatherlink.com 1.10,2014-01-09 16:14:00,
2014-01-09 11:29:00,32.3,19.0,30.64,SE,139,0.0,1.0,59,0.00,,,0.00,weatherlink.com 1.10,2014-01-09 16:29:00,
2014-01-09 11:44:00,32.9,19.0,30.64,ESE,114,3.0,4.0,58,0.00,,,0.00,weatherlink.com 1.10,2014-01-09 16:44:00,
2014-01-09 11:59:00,32.6,20.0,30.62,NW,315,1.0,2.0,59,0.00,,,0.00,weatherlink.com 1.10,2014-01-09 16:59:00,
2014-01-09 12:44:00,34.6,20.0,30.60,SW,232,1.0,1.0,56,0.00,,,0.00,weatherlink.com 1.10,2014-01-09 17:44:00,
2014-01-09 13:14:00,34.1,20.0,30.59,South,173,1.0,9.0,56,0.00,,,0.00,weatherlink.com 1.10,2014-01-09 18:14:00,
2014-01-09 13:29:00,35.0,20.0,30.59,SSW,194,2.0,6.0,55,0.00,,,0.00,weatherlink.com 1.10,2014-01-09 18:29:00,
2014-01-09 13:44:00,34.8,20.0,30.59,SSW,204,3.0,6.0,54,0.00,,,0.00,weatherlink.com 1.10,2014-01-09 18:44:00,
2014-01-09 13:59:00,35.2,19.0,30.59,South,190,2.0,6.0,53,0.00,,,0.00,weatherlink.com 1.10,2014-01-09 18:59:00,
2014-01-09 14:14:00,35.6,19.0,30.59,SE,126,1.0,5.0,52,0.00,,,0.00,weatherlink.com 1.10,2014-01-09 19:14:00,
2014-01-09 14:30:00,36.2,19.0,30.59,South,172,1.0,5.0,49,0.00,,,0.00,weatherlink.com 1.10,2014-01-09 19:30:00,
2014-01-09 15:30:00,35.9,19.0,30.59,ESE,109,2.0,7.0,50,0.00,,,0.00,weatherlink.com 1.10,2014-01-09 20:30:00,
2014-01-09 15:45:00,35.1,19.0,30.59,SW,218,3.0,7.0,53,0.00,,,0.00,weatherlink.com 1.10,2014-01-09 20:45:00,
2014-01-09 16:00:00,34.9,19.0,30.60,SSE,154,3.0,6.0,53,0.00,,,0.00,weatherlink.com 1.10,2014-01-09 21:00:00,
2014-01-09 16:15:00,34.5,19.0,30.60,East,100,4.0,5.0,54,0.00,,,0.00,weatherlink.com 1.10,2014-01-09 21:15:00,
2014-01-09 17:00:00,33.9,20.0,30.59,ESE,110,1.0,3.0,57,0.00,,,0.00,weatherlink.com 1.10,2014-01-09 22:00:00,
2014-01-09 17:30:00,31.8,20.0,30.58,NNW,327,0.0,1.0,61,0.00,,,0.00,weatherlink.com 1.10,2014-01-09 22:30:00,
2014-01-09 19:30:00,28.3,19.0,30.54,NW,315,0.0,0.0,69,0.00,,,0.00,weatherlink.com 1.10,2014-01-10 00:30:00,
2014-01-09 19:45:00,28.8,19.0,30.54,NW,311,0.0,0.0,68,0.00,,,0.00,weatherlink.com 1.10,2014-01-10 00:45:00,
2014-01-09 20:00:00,28.6,20.0,30.55,NW,311,0.0,0.0,70,0.00,,,0.00,weatherlink.com 1.10,2014-01-10 01:00:00,
2014-01-09 20:15:00,28.4,20.0,30.55,NW,312,0.0,0.0,70,0.00,,,0.00,weatherlink.com 1.10,2014-01-10 01:15:00,
2014-01-09 20:30:00,29.3,20.0,30.55,NE,52,0.0,0.0,69,0.00,,,0.00,weatherlink.com 1.10,2014-01-10 01:30:00,
2014-01-09 20:45:00,30.6,21.0,30.56,South,169,3.0,5.0,67,0.00,,,0.00,weatherlink.com 1.10,2014-01-10 01:45:00,
2014-01-09 21:00:00,32.0,20.0,30.56,East,90,4.0,14.0,62,0.00,,,0.00,weatherlink.com 1.10,2014-01-10 02:00:00,
2014-01-09 21:15:00,32.0,20.0,30.56,SSE,159,4.0,8.0,61,0.00,,,0.00,weatherlink.com 1.10,2014-01-10 02:15:00,
2014-01-09 21:30:00,31.8,20.0,30.55,SE,124,6.0,8.0,61,0.00,,,0.00,weatherlink.com 1.10,2014-01-10 02:30:00,
2014-01-09 21:45:00,32.2,20.0,30.54,SSE,159,5.0,10.0,60,0.00,,,0.00,weatherlink.com 1.10,2014-01-10 02:45:00,
2014-01-09 22:00:00,32.4,19.0,30.55,South,186,7.0,12.0,59,0.00,,,0.00,weatherlink.com 1.10,2014-01-10 03:00:00,
2014-01-09 22:15:00,32.2,20.0,30.53,SSE,163,6.0,15.0,60,0.00,,,0.00,weatherlink.com 1.10,2014-01-10 03:15:00,
2014-01-09 22:30:00,32.2,20.0,30.52,SE,124,6.0,17.0,61,0.00,,,0.00,weatherlink.com 1.10,2014-01-10 03:30:00,
2014-01-09 22:45:00,32.2,20.0,30.52,SSE,153,2.0,13.0,61,0.00,,,0.00,weatherlink.com 1.10,2014-01-10 03:45:00,
2014-01-09 23:00:00,32.2,20.0,30.52,SE,142,6.0,14.0,61,0.00,,,0.00,weatherlink.com 1.10,2014-01-10 04:00:00,
2014-01-09 23:15:00,31.9,20.0,30.52,SSE,158,5.0,9.0,61,0.00,,,0.00,weatherlink.com 1.10,2014-01-10 04:15:00,
2014-01-09 23:30:00,31.7,20.0,30.52,South,186,7.0,13.0,62,0.00,,,0.00,weatherlink.com 1.10,2014-01-10 04:30:00,
2014-01-09 23:45:00,31.7,20.0,30.52,SE,146,8.0,15.0,62,0.00,,,0.00,weatherlink.com 1.10,2014-01-10 04:45:00,